Nearby METAR Reports

 

KISP - Islip, New York, USA
Distance from station: SW 4mi, 6km
Updated: Mon, 10/15/2018 3:56 pm EDT
Overcast
Overcast
 Wind from SW
Wind: SW 14 mph , 22 km/h
Temperature: 66°F , 19°C
Dew Point: 64°F , 18°C
Humidity: 94%
Barometer: 29.96 inHg , 1014.6 hPa
Clouds: Overcast
Visibility: 10 miles , 16 km
Cloud details: Few Clouds 600 ft
Mostly cloudy 1400 ft
Overcast 2500 ft
2018/10/15 19:56 KISP 151956Z 22012KT 10SM FEW006 BKN014 OVC025 19/18 A2996 RMK AO2 SLP143 T01890178
KHWV - Shirley, New York, USA
Distance from station: E 10mi, 16km
Updated: Mon, 10/15/2018 3:56 pm EDT
Overcast
Overcast
 Wind from SW
Wind: SW 14 mph , 22 km/h, Gust: 21 mph , 33 km/h
Temperature: 66°F , 19°C
Dew Point: 63°F , 17°C
Humidity: 88%
Barometer: 29.96 inHg , 1014.6 hPa
Clouds: Overcast
Visibility: 10 miles , 16 km
Cloud details: Partly cloudy 600 ft
Overcast 2100 ft
2018/10/15 19:56 KHWV 151956Z AUTO 23012G18KT 10SM SCT006 OVC021 19/17 A2996 RMK AO2 RAE09 SLP145 P0000 T01890172 $
 
KFRG - Farmingdale, New York, USA
Distance from station: WSW 20mi, 33km
Updated: Mon, 10/15/2018 3:53 pm EDT
Overcast
Overcast
 Wind from SW
Wind: SW 15 mph , 24 km/h, Gust: 21 mph , 33 km/h
Temperature: 64°F , 18°C
Dew Point: 63°F , 17°C
Humidity: 94%
Barometer: 29.96 inHg , 1014.6 hPa
Clouds: Overcast
Visibility: 10 miles , 16 km
Cloud details: Overcast 1200 ft
2018/10/15 19:53 KFRG 151953Z 22013G18KT 10SM OVC012 18/17 A2996 RMK AO2 SLP145 T01830167
KBDR - Bridgeport, Connecticut, USA
Distance from station: N 23mi, 37km
Updated: Mon, 10/15/2018 4:13 pm EDT
Overcast
Overcast
 Wind from SW
Wind: SW 15 mph , 24 km/h
Temperature: 66°F , 19°C
Dew Point: 61°F , 16°C
Humidity: 83%
Barometer: 29.93 inHg , 1013.5 hPa
Clouds: Overcast
Visibility: 10 miles , 16 km
Cloud details: Overcast 1400 ft
2018/10/15 20:13 KBDR 152013Z 23013KT 10SM OVC014 19/16 A2993 RMK AO2 T01890161 $
 
KFOK - Westhampton Beac, New York, USA
Distance from station: E 23mi, 37km
Updated: Mon, 10/15/2018 3:53 pm EDT
Overcast
Overcast
 Wind from SW
Wind: SW 13 mph , 20 km/h, Gust: 20 mph , 31 km/h
Temperature: 66°F , 19°C
Dew Point: 63°F , 17°C
Humidity: 88%
Barometer: 29.97 inHg , 1014.9 hPa
Clouds: Overcast
Visibility: 8 miles , 13 km
Cloud details: Overcast 800 ft
2018/10/15 19:53 KFOK 151953Z 22011G17KT 8SM OVC008 19/17 A2997 RMK AO2 RAB10E31 CIG 006V012 SLP149 P0000 T01890172
KHVN - New Haven/Tweed, Connecticut, USA
Distance from station: NNE 31mi, 50km
Updated: Mon, 10/15/2018 3:53 pm EDT
Overcast
Overcast
 Wind from SW
Wind: SW 12 mph , 19 km/h, Gust: 22 mph , 35 km/h
Temperature: 66°F , 19°C
Dew Point: 63°F , 17°C
Humidity: 88%
Barometer: 29.94 inHg , 1013.9 hPa
Clouds: Overcast
Visibility: 10 miles , 16 km
Cloud details: Overcast 1800 ft
2018/10/15 19:53 KHVN 151953Z 23010G19KT 10SM OVC018 19/17 A2994 RMK AO2 SLP139 T01940167 $
 
KHPN - White Plains, New York, USA
Distance from station: WNW 37mi, 60km
Updated: Mon, 10/15/2018 3:56 pm EDT
Mostly cloudy
Mostly cloudy
 Wind from varies
Wind: varies 3 mph , 6 km/h
Temperature: 63°F , 17°C
Dew Point: 61°F , 16°C
Humidity: 94%
Barometer: 29.94 inHg , 1013.9 hPa
Clouds: Mostly cloudy
Visibility: 10 miles , 16 km
Cloud details: Mostly cloudy 900 ft
2018/10/15 19:56 KHPN 151956Z VRB03KT 10SM BKN009 17/16 A2994 RMK AO2 SLP139 T01720156
KJFK - Nyc/Jfk Arpt, New York, USA
Distance from station: WSW 40mi, 64km
Updated: Mon, 10/15/2018 4:17 pm EDT
Overcast
Overcast
 Wind from SW
Wind: SW 13 mph , 20 km/h
Temperature: 64°F , 18°C
Dew Point: 64°F , 18°C
Humidity: 100%
Barometer: 29.97 inHg , 1014.9 hPa
Clouds: Overcast
Visibility: 10 miles , 16 km
Cloud details: Mostly cloudy 1500 ft
Mostly cloudy 4800 ft
Overcast 7500 ft
2018/10/15 20:17 KJFK 152017Z 22011KT 10SM BKN015 BKN048 OVC075 18/18 A2997 RMK AO2 T01830178 $
 
KDXR - Danbury, Connecticut, USA
Distance from station: NNW 42mi, 68km
Updated: Mon, 10/15/2018 3:53 pm EDT
Overcast
Overcast
 Wind from SW
Wind: SW 8 mph , 13 km/h
Temperature: 63°F , 17°C
Dew Point: 59°F , 15°C
Humidity: 88%
Barometer: 29.93 inHg , 1013.5 hPa
Clouds: Overcast
Visibility: 10 miles , 16 km
Cloud details: Overcast 1000 ft
2018/10/15 19:53 KDXR 151953Z 22007KT 10SM OVC010 17/15 A2993 RMK AO2 SLP136 T01670150
KHTO - East Hampton, New York, USA
Distance from station: E 43mi, 69km
Updated: Mon, 10/15/2018 4:15 pm EDT
Overcast
Overcast
 Wind from SW
Wind: SW 14 mph , 22 km/h, Gust: 22 mph , 35 km/h
Temperature: 64°F , 18°C
Dew Point: 63°F , 17°C
Humidity: 94%
Barometer: 29.95 inHg , 1014.2 hPa
Clouds: Overcast
Visibility: 7 miles , 11 km
Cloud details: Overcast 600 ft
2018/10/15 20:15 KHTO 152015Z AUTO 22012G19KT 7SM OVC006 18/17 A2995 RMK AO2 T01800172
 
KOXC - Oxford/Waterbury, Connecticut, USA
Distance from station: N 43mi, 70km
Updated: Mon, 10/15/2018 3:51 pm EDT
Mist, Overcast
Mist, Overcast
 Wind from SSW
Wind: SSW 7 mph , 11 km/h
Temperature: 61°F , 16°C
Dew Point: 61°F , 16°C
Humidity: 100%
Barometer: 29.94 inHg , 1013.9 hPa
Summary: Mist
Clouds: Overcast
Visibility: 6 miles , 10 km
Cloud details: Overcast 400 ft
2018/10/15 19:51 KOXC 151951Z 21006KT 6SM BR OVC004 16/16 A2994 RMK AO2 SLP150 T01610156 $
KLGA - Nyc/La Guardia, New York, USA
Distance from station: W 44mi, 70km
Updated: Mon, 10/15/2018 4:14 pm EDT
Overcast
Overcast
 Wind from SW
Wind: SW 14 mph , 22 km/h
Temperature: 66°F , 19°C
Dew Point: 61°F , 16°C
Humidity: 83%
Barometer: 29.94 inHg , 1013.9 hPa
Clouds: Overcast
Visibility: 10 miles , 16 km
Cloud details: Partly cloudy 1500 ft
Mostly cloudy 4700 ft
Overcast 5500 ft
2018/10/15 20:14 KLGA 152014Z 22012KT 10SM SCT015 BKN047 OVC055 19/16 A2994 RMK AO2 T01940156 $
 
KSNC - Chester, Connecticut, USA
Distance from station: NE 47mi, 76km
Updated: Mon, 10/15/2018 3:55 pm EDT
Overcast
Overcast
 Wind from SSW
Wind: SSW 12 mph , 19 km/h
Temperature: 64°F , 18°C
Dew Point: 64°F , 18°C
Humidity: 100%
Barometer: 29.95 inHg , 1014.2 hPa
Clouds: Overcast
Visibility: 9 miles , 14 km
Cloud details: Overcast 600 ft
2018/10/15 19:55 KSNC 151955Z AUTO 21010KT 180V240 9SM OVC006 18/18 A2995 RMK AO2
KMMK - Meriden, Connecticut, USA
Distance from station: NNE 48mi, 77km
Updated: Mon, 10/15/2018 3:53 pm EDT
Overcast
Overcast
 Wind from S
Wind: S 8 mph , 13 km/h
Temperature: 64°F , 18°C
Dew Point: 61°F , 16°C
Humidity: 88%
Barometer: 29.94 inHg , 1013.9 hPa
Clouds: Overcast
Visibility: 10 miles , 16 km
Cloud details: Overcast 1300 ft
2018/10/15 19:53 KMMK 151953Z AUTO 19007KT 10SM OVC013 18/16 A2994 RMK AO2 SLP137 T01780156 $
 
KNYC - Nyc/Central Park, New York, USA
Distance from station: W 48mi, 77km
Updated: Mon, 10/15/2018 3:51 pm EDT
Overcast
Overcast
 
Temperature: 64°F , 18°C
Dew Point: 61°F , 16°C
Humidity: 88%
Barometer: 29.98 inHg , 1015.2 hPa
Clouds: Overcast
Visibility: 10 miles , 16 km
Cloud details: Overcast 1200 ft
2018/10/15 19:51 KNYC 151951Z AUTO 10SM OVC012 18/16 A2998 RMK AO2 SLP142 T01780161 $